sensor_id;sensor_type;location;lat;lon;timestamp;pressure;altitude;pressure_sealevel;temperature;humidity
36932;BME280;22847;42.654;23.370;2022-08-03T00:02:01;94492.94;;;24.18;43.71
36932;BME280;22847;42.654;23.370;2022-08-03T00:04:28;94697.88;;;25.54;43.25
36932;BME280;22847;42.654;23.370;2022-08-03T00:06:53;94660.59;;;25.59;42.88
36932;BME280;22847;42.654;23.370;2022-08-03T00:09:19;94598.78;;;25.27;42.46
36932;BME280;22847;42.654;23.370;2022-08-03T00:11:44;94667.75;;;25.70;42.20
36932;BME280;22847;42.654;23.370;2022-08-03T00:14:10;94686.00;;;25.90;42.30
36932;BME280;22847;42.654;23.370;2022-08-03T00:16:35;94602.31;;;25.45;41.99
36932;BME280;22847;42.654;23.370;2022-08-03T00:19:01;94577.84;;;25.36;42.04
36932;BME280;22847;42.654;23.370;2022-08-03T00:21:27;94680.84;;;25.84;42.13
36932;BME280;22847;42.654;23.370;2022-08-03T00:23:53;94686.19;;;25.84;42.24
36932;BME280;22847;42.654;23.370;2022-08-03T00:26:20;94708.59;;;26.11;42.33
36932;BME280;22847;42.654;23.370;2022-08-03T00:28:46;94642.38;;;25.85;41.97
36932;BME280;22847;42.654;23.370;2022-08-03T00:31:11;94651.41;;;25.55;42.80
36932;BME280;22847;42.654;23.370;2022-08-03T00:33:37;94688.53;;;25.68;43.05
36932;BME280;22847;42.654;23.370;2022-08-03T00:36:02;94690.13;;;25.29;43.80
36932;BME280;22847;42.654;23.370;2022-08-03T00:38:28;94531.13;;;23.89;44.34
36932;BME280;22847;42.654;23.370;2022-08-03T00:40:53;94511.97;;;24.22;43.58
36932;BME280;22847;42.654;23.370;2022-08-03T00:43:24;94681.38;;;25.57;43.17
36932;BME280;22847;42.654;23.370;2022-08-03T00:45:51;94695.88;;;25.50;42.72
36932;BME280;22847;42.654;23.370;2022-08-03T00:48:16;94540.63;;;24.78;42.35
36932;BME280;22847;42.654;23.370;2022-08-03T00:50:42;94560.94;;;24.79;42.64
36932;BME280;22847;42.654;23.370;2022-08-03T00:53:09;94696.88;;;24.97;43.34
36932;BME280;22847;42.654;23.370;2022-08-03T00:55:39;94699.19;;;25.17;43.47
36932;BME280;22847;42.654;23.370;2022-08-03T00:58:04;94690.78;;;25.37;43.22
36932;BME280;22847;42.654;23.370;2022-08-03T01:00:32;94669.84;;;25.17;42.99
36932;BME280;22847;42.654;23.370;2022-08-03T01:02:58;94686.72;;;25.57;42.57
36932;BME280;22847;42.654;23.370;2022-08-03T01:05:24;94636.41;;;25.14;43.11
36932;BME280;22847;42.654;23.370;2022-08-03T01:08:02;94650.25;;;24.88;43.51
36932;BME280;22847;42.654;23.370;2022-08-03T01:15:58;94472.28;;;23.37;44.69
36932;BME280;22847;42.654;23.370;2022-08-03T01:18:35;94632.25;;;24.07;45.28
36932;BME280;22847;42.654;23.370;2022-08-03T01:21:09;94677.28;;;23.97;46.41
36932;BME280;22847;42.654;23.370;2022-08-03T01:32:36;94671.53;;;24.00;46.15
36932;BME280;22847;42.654;23.370;2022-08-03T01:35:08;94484.13;;;23.11;45.56
36932;BME280;22847;42.654;23.370;2022-08-03T01:37:40;94632.81;;;24.51;44.67
36932;BME280;22847;42.654;23.370;2022-08-03T01:40:07;94631.66;;;24.81;44.05
36932;BME280;22847;42.654;23.370;2022-08-03T01:42:35;94661.09;;;24.10;45.30
36932;BME280;22847;42.654;23.370;2022-08-03T01:45:02;94679.44;;;23.59;47.47
36932;BME280;22847;42.654;23.370;2022-08-03T01:47:29;94663.63;;;23.64;47.42
36932;BME280;22847;42.654;23.370;2022-08-03T01:49:56;94678.38;;;24.49;45.35
36932;BME280;22847;42.654;23.370;2022-08-03T01:52:23;94503.50;;;23.60;44.66
36932;BME280;22847;42.654;23.370;2022-08-03T01:54:51;94651.38;;;24.69;44.45
36932;BME280;22847;42.654;23.370;2022-08-03T01:57:18;94586.38;;;23.93;44.96
36932;BME280;22847;42.654;23.370;2022-08-03T01:59:46;94702.47;;;24.31;45.63
36932;BME280;22847;42.654;23.370;2022-08-03T02:02:14;94675.00;;;23.71;47.04
36932;BME280;22847;42.654;23.370;2022-08-03T02:04:41;94657.88;;;24.08;45.79
36932;BME280;22847;42.654;23.370;2022-08-03T02:07:08;94671.88;;;24.04;46.09
36932;BME280;22847;42.654;23.370;2022-08-03T02:09:38;94681.75;;;24.44;45.15
36932;BME280;22847;42.654;23.370;2022-08-03T02:12:08;94685.91;;;24.64;44.90
36932;BME280;22847;42.654;23.370;2022-08-03T02:14:35;94641.63;;;24.51;44.46
36932;BME280;22847;42.654;23.370;2022-08-03T02:17:01;94646.50;;;24.77;44.12
36932;BME280;22847;42.654;23.370;2022-08-03T02:19:27;94673.31;;;25.06;43.80
36932;BME280;22847;42.654;23.370;2022-08-03T02:21:54;94674.59;;;25.15;43.53
36932;BME280;22847;42.654;23.370;2022-08-03T02:24:22;94541.97;;;24.17;43.75
36932;BME280;22847;42.654;23.370;2022-08-03T02:26:48;94633.19;;;24.89;43.51
36932;BME280;22847;42.654;23.370;2022-08-03T02:29:19;94683.31;;;24.99;43.81
36932;BME280;22847;42.654;23.370;2022-08-03T02:31:48;94679.31;;;25.24;43.60
36932;BME280;22847;42.654;23.370;2022-08-03T02:34:14;94667.63;;;25.25;43.54
36932;BME280;22847;42.654;23.370;2022-08-03T02:36:41;94657.06;;;25.19;43.55
36932;BME280;22847;42.654;23.370;2022-08-03T02:39:12;94504.19;;;24.20;43.55
36932;BME280;22847;42.654;23.370;2022-08-03T02:41:46;94675.84;;;25.24;43.65
36932;BME280;22847;42.654;23.370;2022-08-03T02:44:13;94665.38;;;25.22;43.94
36932;BME280;22847;42.654;23.370;2022-08-03T02:46:44;94675.38;;;25.27;43.95
36932;BME280;22847;42.654;23.370;2022-08-03T02:49:12;94659.84;;;25.01;43.91
36932;BME280;22847;42.654;23.370;2022-08-03T02:51:39;94633.03;;;24.72;44.56
36932;BME280;22847;42.654;23.370;2022-08-03T02:54:06;94688.66;;;24.99;44.61
36932;BME280;22847;42.654;23.370;2022-08-03T02:56:34;94662.19;;;24.85;44.28
36932;BME280;22847;42.654;23.370;2022-08-03T02:59:00;94622.16;;;24.74;44.10
36932;BME280;22847;42.654;23.370;2022-08-03T03:01:27;94616.47;;;24.70;43.93
36932;BME280;22847;42.654;23.370;2022-08-03T03:03:55;94683.41;;;25.15;43.96
36932;BME280;22847;42.654;23.370;2022-08-03T03:06:23;94681.19;;;25.24;43.78
36932;BME280;22847;42.654;23.370;2022-08-03T03:08:50;94696.63;;;25.10;44.14
36932;BME280;22847;42.654;23.370;2022-08-03T03:11:19;94684.59;;;23.72;47.12
36932;BME280;22847;42.654;23.370;2022-08-03T03:13:45;94677.41;;;24.02;46.24
36932;BME280;22847;42.654;23.370;2022-08-03T03:16:12;94693.22;;;24.68;45.18
36932;BME280;22847;42.654;23.370;2022-08-03T03:18:38;94692.53;;;24.61;45.40
36932;BME280;22847;42.654;23.370;2022-08-03T03:21:06;94691.63;;;24.79;44.75
36932;BME280;22847;42.654;23.370;2022-08-03T03:23:34;94687.63;;;24.35;45.68
36932;BME280;22847;42.654;23.370;2022-08-03T03:26:00;94693.13;;;23.44;47.19
36932;BME280;22847;42.654;23.370;2022-08-03T03:28:27;94674.97;;;24.00;46.21
36932;BME280;22847;42.654;23.370;2022-08-03T03:30:53;94675.44;;;23.68;46.77
36932;BME280;22847;42.654;23.370;2022-08-03T03:33:22;94712.03;;;24.20;46.23
36932;BME280;22847;42.654;23.370;2022-08-03T03:35:48;94679.97;;;24.27;45.34
36932;BME280;22847;42.654;23.370;2022-08-03T03:38:18;94705.75;;;24.68;45.39
36932;BME280;22847;42.654;23.370;2022-08-03T03:40:48;94686.50;;;24.66;44.83
36932;BME280;22847;42.654;23.370;2022-08-03T03:43:13;94697.19;;;24.66;44.79
36932;BME280;22847;42.654;23.370;2022-08-03T03:45:40;94216.59;;;21.86;45.03
36932;BME280;22847;42.654;23.370;2022-08-03T03:48:06;94627.34;;;24.45;45.24
36932;BME280;22847;42.654;23.370;2022-08-03T03:50:33;94672.19;;;24.90;45.03
36932;BME280;22847;42.654;23.370;2022-08-03T03:53:00;94713.47;;;25.11;45.49
36932;BME280;22847;42.654;23.370;2022-08-03T03:55:26;94684.31;;;24.63;45.67
36932;BME280;22847;42.654;23.370;2022-08-03T03:57:51;94742.59;;;25.12;45.59
36932;BME280;22847;42.654;23.370;2022-08-03T04:00:17;94745.69;;;25.09;44.95
36932;BME280;22847;42.654;23.370;2022-08-03T04:02:44;94701.28;;;24.92;44.56
36932;BME280;22847;42.654;23.370;2022-08-03T04:05:10;94648.34;;;24.77;44.47
36932;BME280;22847;42.654;23.370;2022-08-03T04:10:43;94499.53;;;24.04;44.10
36932;BME280;22847;42.654;23.370;2022-08-03T04:13:24;94535.25;;;24.26;44.31
36932;BME280;22847;42.654;23.370;2022-08-03T04:15:52;94659.38;;;25.15;44.03
36932;BME280;22847;42.654;23.370;2022-08-03T04:18:20;94721.91;;;25.43;43.57
36932;BME280;22847;42.654;23.370;2022-08-03T04:20:47;94717.03;;;26.19;42.69
36932;BME280;22847;42.654;23.370;2022-08-03T04:23:15;94716.19;;;27.09;40.78
36932;BME280;22847;42.654;23.370;2022-08-03T04:25:45;94676.84;;;27.91;38.65
36932;BME280;22847;42.654;23.370;2022-08-03T04:28:11;94532.09;;;27.91;36.93
36932;BME280;22847;42.654;23.370;2022-08-03T04:30:38;94519.28;;;28.30;35.97
36932;BME280;22847;42.654;23.370;2022-08-03T04:33:11;94715.91;;;29.74;35.32
36932;BME280;22847;42.654;23.370;2022-08-03T04:35:37;94689.88;;;29.84;35.13
36932;BME280;22847;42.654;23.370;2022-08-03T04:38:05;94690.53;;;29.54;35.29
36932;BME280;22847;42.654;23.370;2022-08-03T04:40:36;94513.25;;;28.50;35.48
36932;BME280;22847;42.654;23.370;2022-08-03T04:43:04;94554.53;;;28.86;34.88
36932;BME280;22847;42.654;23.370;2022-08-03T04:45:31;94409.88;;;27.95;35.23
36932;BME280;22847;42.654;23.370;2022-08-03T04:47:57;94496.09;;;28.56;35.16
36932;BME280;22847;42.654;23.370;2022-08-03T04:50:24;94689.56;;;29.76;35.11
36932;BME280;22847;42.654;23.370;2022-08-03T04:52:52;94582.34;;;29.17;35.20
36932;BME280;22847;42.654;23.370;2022-08-03T04:55:28;94724.44;;;30.23;34.71
36932;BME280;22847;42.654;23.370;2022-08-03T04:57:53;94719.16;;;29.76;35.53
36932;BME280;22847;42.654;23.370;2022-08-03T05:00:19;94705.19;;;29.84;35.48
36932;BME280;22847;42.654;23.370;2022-08-03T05:02:45;94733.16;;;29.83;35.91
36932;BME280;22847;42.654;23.370;2022-08-03T05:05:10;94740.16;;;29.84;36.14
36932;BME280;22847;42.654;23.370;2022-08-03T05:07:36;94524.84;;;28.66;35.88
36932;BME280;22847;42.654;23.370;2022-08-03T05:10:06;94734.19;;;29.72;36.28
36932;BME280;22847;42.654;23.370;2022-08-03T05:12:32;94707.44;;;29.45;36.18
36932;BME280;22847;42.654;23.370;2022-08-03T05:14:58;94663.47;;;28.82;36.17
36932;BME280;22847;42.654;23.370;2022-08-03T05:17:23;94686.66;;;28.93;36.73
36932;BME280;22847;42.654;23.370;2022-08-03T05:19:48;94713.72;;;28.55;37.47
36932;BME280;22847;42.654;23.370;2022-08-03T05:22:14;94786.81;;;28.67;37.50
36932;BME280;22847;42.654;23.370;2022-08-03T05:24:39;94746.59;;;28.99;36.83
36932;BME280;22847;42.654;23.370;2022-08-03T05:27:05;94581.16;;;28.19;36.42
36932;BME280;22847;42.654;23.370;2022-08-03T05:29:30;94607.41;;;28.17;36.69
36932;BME280;22847;42.654;23.370;2022-08-03T05:31:55;94757.41;;;27.85;38.76
36932;BME280;22847;42.654;23.370;2022-08-03T05:34:21;94699.44;;;28.22;37.98
36932;BME280;22847;42.654;23.370;2022-08-03T05:36:46;94763.59;;;28.56;38.15
36932;BME280;22847;42.654;23.370;2022-08-03T05:39:12;94791.50;;;29.08;37.48
36932;BME280;22847;42.654;23.370;2022-08-03T05:41:37;94780.91;;;29.28;36.96
36932;BME280;22847;42.654;23.370;2022-08-03T05:44:03;94561.88;;;27.95;37.17
36932;BME280;22847;42.654;23.370;2022-08-03T05:46:28;94775.72;;;29.17;36.93
36932;BME280;22847;42.654;23.370;2022-08-03T05:48:54;94597.69;;;28.11;37.59
36932;BME280;22847;42.654;23.370;2022-08-03T05:51:19;94763.94;;;28.86;38.08
36932;BME280;22847;42.654;23.370;2022-08-03T05:53:45;94795.69;;;28.19;40.12
36932;BME280;22847;42.654;23.370;2022-08-03T05:56:11;94772.50;;;28.61;39.02
36932;BME280;22847;42.654;23.370;2022-08-03T05:58:36;94731.63;;;28.49;38.92
36932;BME280;22847;42.654;23.370;2022-08-03T06:01:02;94780.81;;;29.13;38.41
36932;BME280;22847;42.654;23.370;2022-08-03T06:03:27;94625.91;;;27.91;38.74
36932;BME280;22847;42.654;23.370;2022-08-03T06:05:53;94787.31;;;28.64;38.98
36932;BME280;22847;42.654;23.370;2022-08-03T06:08:22;94775.22;;;28.88;38.97
36932;BME280;22847;42.654;23.370;2022-08-03T06:10:49;94752.91;;;28.88;38.29
36932;BME280;22847;42.654;23.370;2022-08-03T06:13:14;94692.53;;;28.58;38.41
36932;BME280;22847;42.654;23.370;2022-08-03T06:15:40;94744.19;;;29.34;37.73
36932;BME280;22847;42.654;23.370;2022-08-03T06:18:06;94757.19;;;29.52;37.45
36932;BME280;22847;42.654;23.370;2022-08-03T06:20:32;94631.66;;;28.64;37.38
36932;BME280;22847;42.654;23.370;2022-08-03T06:22:58;94735.16;;;29.18;37.13
36932;BME280;22847;42.654;23.370;2022-08-03T06:25:24;94613.66;;;28.64;36.69
36932;BME280;22847;42.654;23.370;2022-08-03T06:27:50;94696.06;;;29.33;36.54
36932;BME280;22847;42.654;23.370;2022-08-03T06:30:15;94765.94;;;29.80;36.33
36932;BME280;22847;42.654;23.370;2022-08-03T06:32:41;94774.22;;;30.20;36.36
36932;BME280;22847;42.654;23.370;2022-08-03T06:35:08;94808.97;;;30.37;36.23
36932;BME280;22847;42.654;23.370;2022-08-03T06:37:44;94774.38;;;30.86;35.42
36932;BME280;22847;42.654;23.370;2022-08-03T06:40:11;94762.00;;;30.75;34.73
36932;BME280;22847;42.654;23.370;2022-08-03T06:42:37;94789.44;;;30.77;35.26
36932;BME280;22847;42.654;23.370;2022-08-03T06:45:03;94804.88;;;31.32;34.56
36932;BME280;22847;42.654;23.370;2022-08-03T06:47:30;94756.09;;;31.13;34.31
36932;BME280;22847;42.654;23.370;2022-08-03T06:49:55;94730.78;;;31.04;34.69
36932;BME280;22847;42.654;23.370;2022-08-03T06:52:21;94761.44;;;31.49;33.50
36932;BME280;22847;42.654;23.370;2022-08-03T06:54:46;94722.19;;;31.07;34.28
36932;BME280;22847;42.654;23.370;2022-08-03T06:57:12;94762.03;;;31.20;34.63
36932;BME280;22847;42.654;23.370;2022-08-03T06:59:37;94739.16;;;31.03;34.63
36932;BME280;22847;42.654;23.370;2022-08-03T07:02:03;94735.91;;;31.00;34.60
36932;BME280;22847;42.654;23.370;2022-08-03T07:04:29;94785.19;;;31.36;34.38
36932;BME280;22847;42.654;23.370;2022-08-03T07:06:54;94741.84;;;31.03;34.69
36932;BME280;22847;42.654;23.370;2022-08-03T07:09:19;94736.16;;;30.79;34.60
36932;BME280;22847;42.654;23.370;2022-08-03T07:11:45;94762.00;;;31.25;34.48
36932;BME280;22847;42.654;23.370;2022-08-03T07:14:10;94747.44;;;31.57;34.44
36932;BME280;22847;42.654;23.370;2022-08-03T07:16:36;94771.56;;;32.07;34.30
36932;BME280;22847;42.654;23.370;2022-08-03T07:19:01;94611.41;;;30.98;33.47
36932;BME280;22847;42.654;23.370;2022-08-03T07:21:27;94641.88;;;31.04;33.27
36932;BME280;22847;42.654;23.370;2022-08-03T07:23:52;94595.31;;;30.93;33.44
36932;BME280;22847;42.654;23.370;2022-08-03T07:26:18;94771.78;;;32.31;33.59
36932;BME280;22847;42.654;23.370;2022-08-03T07:28:43;94423.69;;;30.09;32.43
36932;BME280;22847;42.654;23.370;2022-08-03T07:31:09;94748.91;;;32.08;33.09
36932;BME280;22847;42.654;23.370;2022-08-03T07:33:34;94628.91;;;31.21;33.16
36932;BME280;22847;42.654;23.370;2022-08-03T07:36:00;94686.78;;;31.44;33.39
36932;BME280;22847;42.654;23.370;2022-08-03T07:38:25;94691.16;;;30.99;34.21
36932;BME280;22847;42.654;23.370;2022-08-03T07:40:52;94765.25;;;31.48;34.66
36932;BME280;22847;42.654;23.370;2022-08-03T07:43:17;94740.13;;;31.72;33.73
36932;BME280;22847;42.654;23.370;2022-08-03T07:45:43;94740.94;;;31.73;33.11
36932;BME280;22847;42.654;23.370;2022-08-03T07:48:08;94569.19;;;30.84;33.13
36932;BME280;22847;42.654;23.370;2022-08-03T07:50:34;94710.22;;;31.54;33.11
36932;BME280;22847;42.654;23.370;2022-08-03T07:52:59;94755.28;;;31.43;34.03
36932;BME280;22847;42.654;23.370;2022-08-03T07:55:25;94762.53;;;31.73;33.48
36932;BME280;22847;42.654;23.370;2022-08-03T07:58:10;94593.94;;;30.96;32.97
36932;BME280;22847;42.654;23.370;2022-08-03T08:00:42;94765.47;;;32.51;32.35
36932;BME280;22847;42.654;23.370;2022-08-03T08:03:09;94771.34;;;32.68;32.19
36932;BME280;22847;42.654;23.370;2022-08-03T08:05:35;94631.91;;;31.89;32.39
36932;BME280;22847;42.654;23.370;2022-08-03T08:08:01;94737.72;;;32.40;32.19
36932;BME280;22847;42.654;23.370;2022-08-03T08:10:27;94771.88;;;32.65;32.34
36932;BME280;22847;42.654;23.370;2022-08-03T08:12:54;94775.25;;;32.42;31.71
36932;BME280;22847;42.654;23.370;2022-08-03T08:15:20;94784.28;;;32.61;31.49
36932;BME280;22847;42.654;23.370;2022-08-03T08:17:48;94748.69;;;31.95;32.05
36932;BME280;22847;42.654;23.370;2022-08-03T08:20:25;94778.34;;;32.69;31.82
36932;BME280;22847;42.654;23.370;2022-08-03T08:22:50;94743.78;;;32.66;31.49
36932;BME280;22847;42.654;23.370;2022-08-03T08:25:16;94800.16;;;32.83;31.10
36932;BME280;22847;42.654;23.370;2022-08-03T08:27:46;94772.66;;;33.09;30.83
36932;BME280;22847;42.654;23.370;2022-08-03T08:30:12;94758.72;;;32.92;30.20
36932;BME280;22847;42.654;23.370;2022-08-03T08:32:39;94785.75;;;32.92;29.73
36932;BME280;22847;42.654;23.370;2022-08-03T08:35:05;94764.47;;;32.37;30.58
36932;BME280;22847;42.654;23.370;2022-08-03T08:37:31;94708.09;;;32.25;31.02
36932;BME280;22847;42.654;23.370;2022-08-03T08:39:57;94749.16;;;32.71;30.66
36932;BME280;22847;42.654;23.370;2022-08-03T08:42:23;94728.13;;;32.68;30.47
36932;BME280;22847;42.654;23.370;2022-08-03T08:44:49;94764.69;;;32.89;30.43
36932;BME280;22847;42.654;23.370;2022-08-03T08:47:15;94739.22;;;33.00;30.30
36932;BME280;22847;42.654;23.370;2022-08-03T08:49:43;94651.97;;;32.61;29.80
36932;BME280;22847;42.654;23.370;2022-08-03T08:52:12;94673.03;;;32.69;29.01
36932;BME280;22847;42.654;23.370;2022-08-03T08:54:40;94733.47;;;32.78;30.68
36932;BME280;22847;42.654;23.370;2022-08-03T08:57:06;94761.88;;;33.09;30.34
36932;BME280;22847;42.654;23.370;2022-08-03T08:59:33;94708.56;;;32.81;29.24
36932;BME280;22847;42.654;23.370;2022-08-03T09:01:59;94707.53;;;33.06;29.85
36932;BME280;22847;42.654;23.370;2022-08-03T09:04:29;94734.63;;;33.35;29.42
36932;BME280;22847;42.654;23.370;2022-08-03T09:06:55;94701.56;;;32.80;29.96
36932;BME280;22847;42.654;23.370;2022-08-03T09:09:20;94758.75;;;33.55;29.03
36932;BME280;22847;42.654;23.370;2022-08-03T09:11:47;94725.28;;;33.22;29.34
36932;BME280;22847;42.654;23.370;2022-08-03T09:14:13;94714.97;;;33.24;29.37
36932;BME280;22847;42.654;23.370;2022-08-03T09:16:55;94590.03;;;32.41;29.89
36932;BME280;22847;42.654;23.370;2022-08-03T09:19:22;94732.34;;;33.18;29.50
36932;BME280;22847;42.654;23.370;2022-08-03T09:22:09;94740.06;;;33.58;29.55
36932;BME280;22847;42.654;23.370;2022-08-03T09:24:36;94742.00;;;34.05;28.46
36932;BME280;22847;42.654;23.370;2022-08-03T09:27:05;94734.63;;;33.35;28.21
36932;BME280;22847;42.654;23.370;2022-08-03T09:29:31;94763.53;;;33.68;28.81
36932;BME280;22847;42.654;23.370;2022-08-03T09:32:02;94738.97;;;33.59;28.05
36932;BME280;22847;42.654;23.370;2022-08-03T09:34:28;94575.53;;;32.94;28.62
36932;BME280;22847;42.654;23.370;2022-08-03T09:36:54;94717.53;;;33.92;28.52
36932;BME280;22847;42.654;23.370;2022-08-03T09:39:24;94695.00;;;32.91;28.57
36932;BME280;22847;42.654;23.370;2022-08-03T09:42:08;94739.75;;;33.02;28.97
36932;BME280;22847;42.654;23.370;2022-08-03T09:44:35;94716.28;;;32.98;28.79
36932;BME280;22847;42.654;23.370;2022-08-03T09:47:03;94728.41;;;33.00;29.25
36932;BME280;22847;42.654;23.370;2022-08-03T09:49:28;94761.19;;;33.28;28.92
36932;BME280;22847;42.654;23.370;2022-08-03T09:51:55;94703.28;;;33.00;29.42
36932;BME280;22847;42.654;23.370;2022-08-03T09:54:30;94728.22;;;33.26;28.60
36932;BME280;22847;42.654;23.370;2022-08-03T09:56:56;94757.22;;;33.49;28.00
36932;BME280;22847;42.654;23.370;2022-08-03T09:59:29;94728.59;;;33.43;27.92
36932;BME280;22847;42.654;23.370;2022-08-03T10:01:56;94724.91;;;33.34;28.17
36932;BME280;22847;42.654;23.370;2022-08-03T10:04:22;94712.03;;;33.49;27.70
36932;BME280;22847;42.654;23.370;2022-08-03T10:07:21;94731.81;;;32.82;28.62
36932;BME280;22847;42.654;23.370;2022-08-03T10:10:05;94704.19;;;32.90;29.23
36932;BME280;22847;42.654;23.370;2022-08-03T10:12:31;94512.81;;;32.11;28.70
36932;BME280;22847;42.654;23.370;2022-08-03T10:14:56;94757.38;;;33.29;28.45
36932;BME280;22847;42.654;23.370;2022-08-03T10:17:22;94722.53;;;32.93;28.81
36932;BME280;22847;42.654;23.370;2022-08-03T10:19:48;94756.25;;;32.57;29.43
36932;BME280;22847;42.654;23.370;2022-08-03T10:22:23;94722.72;;;32.68;29.16
36932;BME280;22847;42.654;23.370;2022-08-03T10:25:06;94737.56;;;32.60;29.05
36932;BME280;22847;42.654;23.370;2022-08-03T10:27:42;94724.03;;;32.26;29.55
36932;BME280;22847;42.654;23.370;2022-08-03T10:30:11;94706.06;;;32.90;29.08
36932;BME280;22847;42.654;23.370;2022-08-03T10:32:42;94712.97;;;32.72;29.00
36932;BME280;22847;42.654;23.370;2022-08-03T10:35:12;94711.09;;;32.67;28.98
36932;BME280;22847;42.654;23.370;2022-08-03T10:37:43;94715.84;;;32.86;28.62
36932;BME280;22847;42.654;23.370;2022-08-03T10:40:12;94702.44;;;32.70;28.60
36932;BME280;22847;42.654;23.370;2022-08-03T10:42:39;94694.28;;;32.75;29.18
36932;BME280;22847;42.654;23.370;2022-08-03T10:45:08;94685.69;;;33.02;29.30
36932;BME280;22847;42.654;23.370;2022-08-03T10:47:37;94658.66;;;33.02;28.55
36932;BME280;22847;42.654;23.370;2022-08-03T10:50:04;94575.56;;;32.26;28.60
36932;BME280;22847;42.654;23.370;2022-08-03T10:52:31;94691.41;;;33.30;28.04
36932;BME280;22847;42.654;23.370;2022-08-03T10:54:56;94555.25;;;32.34;28.33
36932;BME280;22847;42.654;23.370;2022-08-03T10:57:45;94593.31;;;32.71;27.19
36932;BME280;22847;42.654;23.370;2022-08-03T11:00:12;94692.84;;;32.88;28.21
36932;BME280;22847;42.654;23.370;2022-08-03T11:03:00;94700.88;;;32.98;28.98
36932;BME280;22847;42.654;23.370;2022-08-03T11:05:27;94667.44;;;32.89;29.09
36932;BME280;22847;42.654;23.370;2022-08-03T11:10:45;94548.16;;;32.14;29.02
36932;BME280;22847;42.654;23.370;2022-08-03T11:13:16;94660.41;;;32.88;28.69
36932;BME280;22847;42.654;23.370;2022-08-03T11:15:44;94713.75;;;32.78;28.94
36932;BME280;22847;42.654;23.370;2022-08-03T11:18:11;94503.72;;;31.53;28.85
36932;BME280;22847;42.654;23.370;2022-08-03T11:20:52;94641.75;;;32.19;29.91
36932;BME280;22847;42.654;23.370;2022-08-03T11:23:44;94677.91;;;32.18;30.18
36932;BME280;22847;42.654;23.370;2022-08-03T11:26:12;94600.69;;;31.78;30.12
36932;BME280;22847;42.654;23.370;2022-08-03T11:28:39;94675.25;;;32.13;29.89
36932;BME280;22847;42.654;23.370;2022-08-03T11:34:08;94678.31;;;31.86;31.05
36932;BME280;22847;42.654;23.370;2022-08-03T11:39:40;94649.59;;;32.15;29.37
36932;BME280;22847;42.654;23.370;2022-08-03T11:44:53;94647.31;;;32.38;29.48
36932;BME280;22847;42.654;23.370;2022-08-03T11:47:19;94639.53;;;32.26;30.10
36932;BME280;22847;42.654;23.370;2022-08-03T11:49:46;94664.06;;;32.29;29.80
36932;BME280;22847;42.654;23.370;2022-08-03T11:52:12;94510.66;;;31.15;30.48
36932;BME280;22847;42.654;23.370;2022-08-03T11:54:38;94666.22;;;31.78;30.76
36932;BME280;22847;42.654;23.370;2022-08-03T11:57:05;94622.34;;;31.58;30.90
36932;BME280;22847;42.654;23.370;2022-08-03T11:59:35;94462.13;;;30.50;31.21
36932;BME280;22847;42.654;23.370;2022-08-03T12:02:09;94661.19;;;31.52;31.27
36932;BME280;22847;42.654;23.370;2022-08-03T12:04:51;94646.66;;;31.42;31.46
36932;BME280;22847;42.654;23.370;2022-08-03T12:07:18;94551.16;;;30.74;32.06
36932;BME280;22847;42.654;23.370;2022-08-03T12:10:07;94648.59;;;30.21;33.04
36932;BME280;22847;42.654;23.370;2022-08-03T12:12:33;94630.00;;;29.99;32.97
36932;BME280;22847;42.654;23.370;2022-08-03T12:14:58;94636.72;;;30.06;32.83
36932;BME280;22847;42.654;23.370;2022-08-03T12:17:40;94637.31;;;30.49;32.96
36932;BME280;22847;42.654;23.370;2022-08-03T12:20:08;94643.78;;;30.88;32.26
36932;BME280;22847;42.654;23.370;2022-08-03T12:22:38;94663.44;;;30.53;32.53
36932;BME280;22847;42.654;23.370;2022-08-03T12:25:05;94644.88;;;30.52;32.29
36932;BME280;22847;42.654;23.370;2022-08-03T12:27:31;94604.19;;;30.28;32.36
36932;BME280;22847;42.654;23.370;2022-08-03T12:29:57;94662.03;;;30.31;33.14
36932;BME280;22847;42.654;23.370;2022-08-03T12:32:23;94478.38;;;28.55;33.88
36932;BME280;22847;42.654;23.370;2022-08-03T12:34:51;94621.22;;;29.56;33.80
36932;BME280;22847;42.654;23.370;2022-08-03T12:37:21;94599.22;;;29.69;34.20
36932;BME280;22847;42.654;23.370;2022-08-03T12:39:51;94646.69;;;30.31;32.80
36932;BME280;22847;42.654;23.370;2022-08-03T12:42:17;94618.63;;;29.87;32.86
36932;BME280;22847;42.654;23.370;2022-08-03T12:44:43;94620.31;;;30.18;32.63
36932;BME280;22847;42.654;23.370;2022-08-03T12:47:10;94593.19;;;30.75;32.13
36932;BME280;22847;42.654;23.370;2022-08-03T12:49:49;94610.34;;;31.25;31.48
36932;BME280;22847;42.654;23.370;2022-08-03T12:52:17;94626.97;;;31.47;30.14
36932;BME280;22847;42.654;23.370;2022-08-03T12:54:56;94524.56;;;30.52;30.91
36932;BME280;22847;42.654;23.370;2022-08-03T12:57:22;94602.28;;;31.05;31.02
36932;BME280;22847;42.654;23.370;2022-08-03T12:59:48;94524.53;;;30.68;31.19
36932;BME280;22847;42.654;23.370;2022-08-03T13:05:45;94632.88;;;31.59;31.41
36932;BME280;22847;42.654;23.370;2022-08-03T13:08:21;94650.75;;;31.99;30.68
36932;BME280;22847;42.654;23.370;2022-08-03T13:10:48;94626.53;;;31.84;30.47
36932;BME280;22847;42.654;23.370;2022-08-03T13:13:13;94612.75;;;30.00;33.02
36932;BME280;22847;42.654;23.370;2022-08-03T13:15:39;94420.47;;;28.59;33.29
36932;BME280;22847;42.654;23.370;2022-08-03T13:18:05;94633.66;;;29.78;33.18
36932;BME280;22847;42.654;23.370;2022-08-03T13:20:30;94607.06;;;29.86;33.54
36932;BME280;22847;42.654;23.370;2022-08-03T13:22:56;94660.81;;;29.76;34.01
36932;BME280;22847;42.654;23.370;2022-08-03T13:25:21;94637.53;;;30.12;33.28
36932;BME280;22847;42.654;23.370;2022-08-03T13:27:47;94625.66;;;29.93;33.92